sensor_id;sensor_type;location;lat;lon;timestamp;temperature;humidity
11142;DHT22;5625;50.122;19.864;2023-06-10T00:00:04;17.90;99.90
11142;DHT22;5625;50.122;19.864;2023-06-10T00:02:33;17.90;99.90
11142;DHT22;5625;50.122;19.864;2023-06-10T00:05:02;17.90;99.90
11142;DHT22;5625;50.122;19.864;2023-06-10T00:07:30;17.80;99.90
11142;DHT22;5625;50.122;19.864;2023-06-10T00:10:00;17.80;99.90
11142;DHT22;5625;50.122;19.864;2023-06-10T00:12:31;17.80;99.90
11142;DHT22;5625;50.122;19.864;2023-06-10T00:15:06;17.80;99.90
11142;DHT22;5625;50.122;19.864;2023-06-10T00:17:35;17.80;99.90
11142;DHT22;5625;50.122;19.864;2023-06-10T00:20:08;17.80;99.90
11142;DHT22;5625;50.122;19.864;2023-06-10T00:22:39;17.70;99.90
11142;DHT22;5625;50.122;19.864;2023-06-10T00:25:10;17.70;99.90
11142;DHT22;5625;50.122;19.864;2023-06-10T00:27:40;17.70;99.90
11142;DHT22;5625;50.122;19.864;2023-06-10T00:30:09;17.70;99.90
11142;DHT22;5625;50.122;19.864;2023-06-10T00:32:38;17.70;99.90
11142;DHT22;5625;50.122;19.864;2023-06-10T00:35:07;17.70;99.90
11142;DHT22;5625;50.122;19.864;2023-06-10T00:37:35;17.70;99.90
11142;DHT22;5625;50.122;19.864;2023-06-10T00:40:05;17.70;99.90
11142;DHT22;5625;50.122;19.864;2023-06-10T00:42:36;17.70;99.90
11142;DHT22;5625;50.122;19.864;2023-06-10T00:45:05;17.70;99.90
11142;DHT22;5625;50.122;19.864;2023-06-10T00:47:34;17.70;99.90
11142;DHT22;5625;50.122;19.864;2023-06-10T00:50:04;17.70;99.90
11142;DHT22;5625;50.122;19.864;2023-06-10T00:52:33;17.70;99.90
11142;DHT22;5625;50.122;19.864;2023-06-10T00:55:03;17.70;99.90
11142;DHT22;5625;50.122;19.864;2023-06-10T00:57:31;17.70;99.90
11142;DHT22;5625;50.122;19.864;2023-06-10T01:00:07;17.70;99.90
11142;DHT22;5625;50.122;19.864;2023-06-10T01:02:37;17.70;99.90
11142;DHT22;5625;50.122;19.864;2023-06-10T01:05:05;17.70;99.90
11142;DHT22;5625;50.122;19.864;2023-06-10T01:07:38;17.70;99.90
11142;DHT22;5625;50.122;19.864;2023-06-10T01:10:15;17.70;99.90
11142;DHT22;5625;50.122;19.864;2023-06-10T01:12:49;17.70;99.90
11142;DHT22;5625;50.122;19.864;2023-06-10T01:15:21;17.70;99.90
11142;DHT22;5625;50.122;19.864;2023-06-10T01:17:57;17.70;99.90
11142;DHT22;5625;50.122;19.864;2023-06-10T01:20:26;17.70;99.90
11142;DHT22;5625;50.122;19.864;2023-06-10T01:22:56;17.70;99.90
11142;DHT22;5625;50.122;19.864;2023-06-10T01:25:27;17.60;99.90
11142;DHT22;5625;50.122;19.864;2023-06-10T01:28:02;17.70;99.90
11142;DHT22;5625;50.122;19.864;2023-06-10T01:30:37;17.70;99.90
11142;DHT22;5625;50.122;19.864;2023-06-10T01:33:09;17.70;99.90
11142;DHT22;5625;50.122;19.864;2023-06-10T01:35:40;17.70;99.90
11142;DHT22;5625;50.122;19.864;2023-06-10T01:38:10;17.60;99.90
11142;DHT22;5625;50.122;19.864;2023-06-10T01:40:40;17.70;99.90
11142;DHT22;5625;50.122;19.864;2023-06-10T01:43:08;17.70;99.90
11142;DHT22;5625;50.122;19.864;2023-06-10T01:45:36;17.70;99.90
11142;DHT22;5625;50.122;19.864;2023-06-10T01:48:05;17.60;99.90
11142;DHT22;5625;50.122;19.864;2023-06-10T01:50:33;17.70;99.90
11142;DHT22;5625;50.122;19.864;2023-06-10T01:53:03;17.60;99.90
11142;DHT22;5625;50.122;19.864;2023-06-10T01:55:33;17.60;99.90
11142;DHT22;5625;50.122;19.864;2023-06-10T01:58:01;17.70;99.90
11142;DHT22;5625;50.122;19.864;2023-06-10T02:00:29;17.60;99.90
11142;DHT22;5625;50.122;19.864;2023-06-10T02:02:57;17.60;99.90
11142;DHT22;5625;50.122;19.864;2023-06-10T02:05:25;17.60;99.90
11142;DHT22;5625;50.122;19.864;2023-06-10T02:07:53;17.60;99.90
11142;DHT22;5625;50.122;19.864;2023-06-10T02:10:21;17.60;99.90
11142;DHT22;5625;50.122;19.864;2023-06-10T02:12:51;17.60;99.90
11142;DHT22;5625;50.122;19.864;2023-06-10T02:15:19;17.60;99.90
11142;DHT22;5625;50.122;19.864;2023-06-10T02:17:47;17.60;99.90
11142;DHT22;5625;50.122;19.864;2023-06-10T02:20:16;17.60;99.90
11142;DHT22;5625;50.122;19.864;2023-06-10T02:22:45;17.50;99.90
11142;DHT22;5625;50.122;19.864;2023-06-10T02:25:13;17.60;99.90
11142;DHT22;5625;50.122;19.864;2023-06-10T02:27:41;17.50;99.90
11142;DHT22;5625;50.122;19.864;2023-06-10T02:30:12;17.60;99.90
11142;DHT22;5625;50.122;19.864;2023-06-10T02:32:41;17.50;99.90
11142;DHT22;5625;50.122;19.864;2023-06-10T02:35:09;17.60;99.90
11142;DHT22;5625;50.122;19.864;2023-06-10T02:37:39;17.50;99.90
11142;DHT22;5625;50.122;19.864;2023-06-10T02:40:08;17.50;99.90
11142;DHT22;5625;50.122;19.864;2023-06-10T02:42:36;17.60;99.90
11142;DHT22;5625;50.122;19.864;2023-06-10T02:45:06;17.60;99.90
11142;DHT22;5625;50.122;19.864;2023-06-10T02:47:37;17.60;99.90
11142;DHT22;5625;50.122;19.864;2023-06-10T02:50:06;17.50;99.90
11142;DHT22;5625;50.122;19.864;2023-06-10T02:52:35;17.60;99.90
11142;DHT22;5625;50.122;19.864;2023-06-10T02:55:03;17.60;99.90
11142;DHT22;5625;50.122;19.864;2023-06-10T02:57:35;17.50;99.90
11142;DHT22;5625;50.122;19.864;2023-06-10T03:00:04;17.60;99.90
11142;DHT22;5625;50.122;19.864;2023-06-10T03:02:37;17.50;99.90
11142;DHT22;5625;50.122;19.864;2023-06-10T03:05:07;17.60;99.90
11142;DHT22;5625;50.122;19.864;2023-06-10T03:07:39;17.60;99.90
11142;DHT22;5625;50.122;19.864;2023-06-10T03:10:08;17.60;99.90
11142;DHT22;5625;50.122;19.864;2023-06-10T03:12:36;17.60;99.90
11142;DHT22;5625;50.122;19.864;2023-06-10T03:15:05;17.50;99.90
11142;DHT22;5625;50.122;19.864;2023-06-10T03:17:34;17.60;99.90
11142;DHT22;5625;50.122;19.864;2023-06-10T03:20:05;17.50;99.90
11142;DHT22;5625;50.122;19.864;2023-06-10T03:22:34;17.50;99.90
11142;DHT22;5625;50.122;19.864;2023-06-10T03:25:03;17.50;99.90
11142;DHT22;5625;50.122;19.864;2023-06-10T03:27:31;17.50;99.90
11142;DHT22;5625;50.122;19.864;2023-06-10T03:29:59;17.50;99.90
11142;DHT22;5625;50.122;19.864;2023-06-10T03:32:27;17.50;99.90
11142;DHT22;5625;50.122;19.864;2023-06-10T03:34:55;17.50;99.90
11142;DHT22;5625;50.122;19.864;2023-06-10T03:37:25;17.50;99.90
11142;DHT22;5625;50.122;19.864;2023-06-10T03:39:53;17.50;99.90
11142;DHT22;5625;50.122;19.864;2023-06-10T03:42:21;17.50;99.90
11142;DHT22;5625;50.122;19.864;2023-06-10T03:44:49;17.50;99.90
11142;DHT22;5625;50.122;19.864;2023-06-10T03:47:18;17.50;99.90
11142;DHT22;5625;50.122;19.864;2023-06-10T03:49:46;17.50;99.90
11142;DHT22;5625;50.122;19.864;2023-06-10T03:52:14;17.60;99.90
11142;DHT22;5625;50.122;19.864;2023-06-10T03:54:43;17.60;99.90
11142;DHT22;5625;50.122;19.864;2023-06-10T03:57:11;17.50;99.90
11142;DHT22;5625;50.122;19.864;2023-06-10T03:59:39;17.60;99.90
11142;DHT22;5625;50.122;19.864;2023-06-10T04:02:07;17.60;99.90
11142;DHT22;5625;50.122;19.864;2023-06-10T04:04:36;17.60;99.90
11142;DHT22;5625;50.122;19.864;2023-06-10T04:07:04;17.60;99.90
11142;DHT22;5625;50.122;19.864;2023-06-10T04:09:33;17.60;99.90
11142;DHT22;5625;50.122;19.864;2023-06-10T04:12:02;17.60;99.90
11142;DHT22;5625;50.122;19.864;2023-06-10T04:14:32;17.70;99.90
11142;DHT22;5625;50.122;19.864;2023-06-10T04:17:02;17.60;99.90
11142;DHT22;5625;50.122;19.864;2023-06-10T04:19:33;17.70;99.90
11142;DHT22;5625;50.122;19.864;2023-06-10T04:22:01;17.70;99.90
11142;DHT22;5625;50.122;19.864;2023-06-10T04:24:30;17.70;99.90
11142;DHT22;5625;50.122;19.864;2023-06-10T04:26:58;17.70;99.90
11142;DHT22;5625;50.122;19.864;2023-06-10T04:29:28;17.80;99.90
11142;DHT22;5625;50.122;19.864;2023-06-10T04:31:57;17.80;99.90
11142;DHT22;5625;50.122;19.864;2023-06-10T04:34:28;17.80;99.90
11142;DHT22;5625;50.122;19.864;2023-06-10T04:36:56;17.80;99.90
11142;DHT22;5625;50.122;19.864;2023-06-10T04:39:24;17.80;99.90
11142;DHT22;5625;50.122;19.864;2023-06-10T04:41:52;17.80;99.90
11142;DHT22;5625;50.122;19.864;2023-06-10T04:44:20;17.80;99.90
11142;DHT22;5625;50.122;19.864;2023-06-10T04:46:50;17.90;99.90
11142;DHT22;5625;50.122;19.864;2023-06-10T04:49:18;17.90;99.90
11142;DHT22;5625;50.122;19.864;2023-06-10T04:51:46;17.90;99.90
11142;DHT22;5625;50.122;19.864;2023-06-10T04:54:14;18.00;99.90
11142;DHT22;5625;50.122;19.864;2023-06-10T04:56:42;18.00;99.90
11142;DHT22;5625;50.122;19.864;2023-06-10T04:59:10;18.10;99.90
11142;DHT22;5625;50.122;19.864;2023-06-10T05:01:41;18.10;99.90
11142;DHT22;5625;50.122;19.864;2023-06-10T05:04:11;18.10;99.90
11142;DHT22;5625;50.122;19.864;2023-06-10T05:06:39;18.10;99.90
11142;DHT22;5625;50.122;19.864;2023-06-10T05:09:13;18.20;99.90
11142;DHT22;5625;50.122;19.864;2023-06-10T05:11:41;18.20;99.90
11142;DHT22;5625;50.122;19.864;2023-06-10T05:14:09;18.30;99.90
11142;DHT22;5625;50.122;19.864;2023-06-10T05:16:37;18.40;99.90
11142;DHT22;5625;50.122;19.864;2023-06-10T05:19:06;18.40;99.90
11142;DHT22;5625;50.122;19.864;2023-06-10T05:21:36;18.50;99.90
11142;DHT22;5625;50.122;19.864;2023-06-10T05:24:04;18.70;99.90
11142;DHT22;5625;50.122;19.864;2023-06-10T05:26:33;18.90;99.90
11142;DHT22;5625;50.122;19.864;2023-06-10T05:29:04;19.10;99.90
11142;DHT22;5625;50.122;19.864;2023-06-10T05:31:35;19.30;99.90
11142;DHT22;5625;50.122;19.864;2023-06-10T05:34:03;19.60;99.90
11142;DHT22;5625;50.122;19.864;2023-06-10T05:36:32;19.70;99.90
11142;DHT22;5625;50.122;19.864;2023-06-10T05:39:01;19.80;99.90
11142;DHT22;5625;50.122;19.864;2023-06-10T05:41:29;19.90;99.90
11142;DHT22;5625;50.122;19.864;2023-06-10T05:44:00;20.00;99.90
11142;DHT22;5625;50.122;19.864;2023-06-10T05:46:28;20.10;99.90
11142;DHT22;5625;50.122;19.864;2023-06-10T05:48:56;20.10;99.90
11142;DHT22;5625;50.122;19.864;2023-06-10T05:51:24;20.10;99.90
11142;DHT22;5625;50.122;19.864;2023-06-10T05:53:54;20.10;99.90
11142;DHT22;5625;50.122;19.864;2023-06-10T05:56:24;20.30;99.90
11142;DHT22;5625;50.122;19.864;2023-06-10T05:58:52;20.40;99.90
11142;DHT22;5625;50.122;19.864;2023-06-10T06:01:20;20.60;99.90
11142;DHT22;5625;50.122;19.864;2023-06-10T06:03:48;20.70;99.90
11142;DHT22;5625;50.122;19.864;2023-06-10T06:06:16;20.80;99.90
11142;DHT22;5625;50.122;19.864;2023-06-10T06:08:47;20.90;99.90
11142;DHT22;5625;50.122;19.864;2023-06-10T06:11:15;20.90;99.90
11142;DHT22;5625;50.122;19.864;2023-06-10T06:13:46;20.80;99.90
11142;DHT22;5625;50.122;19.864;2023-06-10T06:16:19;20.90;99.90
11142;DHT22;5625;50.122;19.864;2023-06-10T06:18:47;20.90;99.90
11142;DHT22;5625;50.122;19.864;2023-06-10T06:21:15;20.90;99.90
11142;DHT22;5625;50.122;19.864;2023-06-10T06:23:43;21.00;99.90
11142;DHT22;5625;50.122;19.864;2023-06-10T06:26:11;21.10;99.90
11142;DHT22;5625;50.122;19.864;2023-06-10T06:28:39;21.10;99.90
11142;DHT22;5625;50.122;19.864;2023-06-10T06:31:08;21.20;99.90
11142;DHT22;5625;50.122;19.864;2023-06-10T06:33:36;21.20;99.90
11142;DHT22;5625;50.122;19.864;2023-06-10T06:36:05;21.20;99.90
11142;DHT22;5625;50.122;19.864;2023-06-10T06:38:36;21.20;99.90
11142;DHT22;5625;50.122;19.864;2023-06-10T06:41:04;21.50;99.90
11142;DHT22;5625;50.122;19.864;2023-06-10T06:43:33;21.40;99.90
11142;DHT22;5625;50.122;19.864;2023-06-10T06:46:01;21.40;99.90
11142;DHT22;5625;50.122;19.864;2023-06-10T06:48:31;21.30;99.90
11142;DHT22;5625;50.122;19.864;2023-06-10T06:50:59;21.30;99.90
11142;DHT22;5625;50.122;19.864;2023-06-10T06:53:27;21.30;99.90
11142;DHT22;5625;50.122;19.864;2023-06-10T06:55:58;21.20;99.90
11142;DHT22;5625;50.122;19.864;2023-06-10T06:58:26;21.10;99.90
11142;DHT22;5625;50.122;19.864;2023-06-10T07:00:54;21.10;99.90
11142;DHT22;5625;50.122;19.864;2023-06-10T07:03:23;21.00;99.90
11142;DHT22;5625;50.122;19.864;2023-06-10T07:05:54;21.00;99.90
11142;DHT22;5625;50.122;19.864;2023-06-10T07:08:22;21.10;99.90
11142;DHT22;5625;50.122;19.864;2023-06-10T07:10:50;21.10;99.90
11142;DHT22;5625;50.122;19.864;2023-06-10T07:13:20;21.20;99.90
11142;DHT22;5625;50.122;19.864;2023-06-10T07:15:48;21.20;99.90
11142;DHT22;5625;50.122;19.864;2023-06-10T07:18:16;21.30;99.90
11142;DHT22;5625;50.122;19.864;2023-06-10T07:20:45;21.40;99.90
11142;DHT22;5625;50.122;19.864;2023-06-10T07:23:14;21.70;99.90
11142;DHT22;5625;50.122;19.864;2023-06-10T07:25:42;21.90;99.90
11142;DHT22;5625;50.122;19.864;2023-06-10T07:28:10;21.90;99.90
11142;DHT22;5625;50.122;19.864;2023-06-10T07:30:38;22.00;99.90
11142;DHT22;5625;50.122;19.864;2023-06-10T07:33:06;22.00;99.90
11142;DHT22;5625;50.122;19.864;2023-06-10T07:35:34;22.00;99.90
11142;DHT22;5625;50.122;19.864;2023-06-10T07:38:02;22.00;99.90
11142;DHT22;5625;50.122;19.864;2023-06-10T07:40:32;22.00;99.90
11142;DHT22;5625;50.122;19.864;2023-06-10T07:43:01;22.10;99.90
11142;DHT22;5625;50.122;19.864;2023-06-10T07:45:29;22.20;99.90
11142;DHT22;5625;50.122;19.864;2023-06-10T07:47:57;22.50;99.90
11142;DHT22;5625;50.122;19.864;2023-06-10T07:50:25;23.00;99.90
11142;DHT22;5625;50.122;19.864;2023-06-10T07:52:53;23.20;99.90
11142;DHT22;5625;50.122;19.864;2023-06-10T07:55:21;23.30;99.90
11142;DHT22;5625;50.122;19.864;2023-06-10T07:57:52;23.40;99.90
11142;DHT22;5625;50.122;19.864;2023-06-10T08:00:20;23.50;99.90
11142;DHT22;5625;50.122;19.864;2023-06-10T08:02:48;23.60;99.90
11142;DHT22;5625;50.122;19.864;2023-06-10T08:05:17;23.70;99.90
11142;DHT22;5625;50.122;19.864;2023-06-10T08:07:45;24.30;99.90
11142;DHT22;5625;50.122;19.864;2023-06-10T08:10:14;24.40;99.90
11142;DHT22;5625;50.122;19.864;2023-06-10T08:12:42;24.70;99.90
11142;DHT22;5625;50.122;19.864;2023-06-10T08:15:11;24.80;99.90
11142;DHT22;5625;50.122;19.864;2023-06-10T08:17:39;24.80;99.90
11142;DHT22;5625;50.122;19.864;2023-06-10T08:20:08;24.70;99.90
11142;DHT22;5625;50.122;19.864;2023-06-10T08:22:36;24.60;99.90
11142;DHT22;5625;50.122;19.864;2023-06-10T08:25:07;24.50;99.90
11142;DHT22;5625;50.122;19.864;2023-06-10T08:27:38;24.50;99.90
11142;DHT22;5625;50.122;19.864;2023-06-10T08:30:07;24.70;99.90
11142;DHT22;5625;50.122;19.864;2023-06-10T08:32:38;24.70;99.90
11142;DHT22;5625;50.122;19.864;2023-06-10T08:35:07;24.70;99.90
11142;DHT22;5625;50.122;19.864;2023-06-10T08:37:36;24.80;99.90
11142;DHT22;5625;50.122;19.864;2023-06-10T08:40:05;24.70;99.90
11142;DHT22;5625;50.122;19.864;2023-06-10T08:42:36;24.70;99.90
11142;DHT22;5625;50.122;19.864;2023-06-10T08:45:08;25.10;99.90
11142;DHT22;5625;50.122;19.864;2023-06-10T08:47:42;25.20;99.90
11142;DHT22;5625;50.122;19.864;2023-06-10T08:50:12;25.30;99.90
11142;DHT22;5625;50.122;19.864;2023-06-10T08:52:43;25.20;99.90
11142;DHT22;5625;50.122;19.864;2023-06-10T08:55:14;25.20;99.90
11142;DHT22;5625;50.122;19.864;2023-06-10T08:57:44;25.40;99.90
11142;DHT22;5625;50.122;19.864;2023-06-10T09:00:16;25.20;99.90
11142;DHT22;5625;50.122;19.864;2023-06-10T09:02:48;25.30;99.90
11142;DHT22;5625;50.122;19.864;2023-06-10T09:05:18;25.50;99.90
11142;DHT22;5625;50.122;19.864;2023-06-10T09:07:48;25.60;99.90
11142;DHT22;5625;50.122;19.864;2023-06-10T09:10:16;25.70;99.90
11142;DHT22;5625;50.122;19.864;2023-06-10T09:12:45;25.60;99.90
11142;DHT22;5625;50.122;19.864;2023-06-10T09:15:13;25.50;99.90
11142;DHT22;5625;50.122;19.864;2023-06-10T09:17:43;25.50;99.90
11142;DHT22;5625;50.122;19.864;2023-06-10T09:20:13;25.50;99.90
11142;DHT22;5625;50.122;19.864;2023-06-10T09:22:42;25.50;99.90
11142;DHT22;5625;50.122;19.864;2023-06-10T09:25:12;25.60;99.90
11142;DHT22;5625;50.122;19.864;2023-06-10T09:27:46;25.70;99.90
11142;DHT22;5625;50.122;19.864;2023-06-10T09:30:27;25.60;99.90
11142;DHT22;5625;50.122;19.864;2023-06-10T09:32:57;25.70;99.90
11142;DHT22;5625;50.122;19.864;2023-06-10T09:35:28;25.70;99.90
11142;DHT22;5625;50.122;19.864;2023-06-10T09:37:57;26.00;99.90
11142;DHT22;5625;50.122;19.864;2023-06-10T09:40:25;26.00;99.90
11142;DHT22;5625;50.122;19.864;2023-06-10T09:42:56;25.90;99.90
11142;DHT22;5625;50.122;19.864;2023-06-10T09:45:29;25.90;99.90
11142;DHT22;5625;50.122;19.864;2023-06-10T09:47:58;25.70;99.90
11142;DHT22;5625;50.122;19.864;2023-06-10T09:50:28;25.60;99.90
11142;DHT22;5625;50.122;19.864;2023-06-10T09:53:01;25.50;99.90
11142;DHT22;5625;50.122;19.864;2023-06-10T09:55:37;25.50;99.90
11142;DHT22;5625;50.122;19.864;2023-06-10T09:58:05;25.30;99.90
11142;DHT22;5625;50.122;19.864;2023-06-10T10:00:36;25.30;99.90
11142;DHT22;5625;50.122;19.864;2023-06-10T10:03:04;25.30;99.90
11142;DHT22;5625;50.122;19.864;2023-06-10T10:05:35;25.40;99.90
11142;DHT22;5625;50.122;19.864;2023-06-10T10:08:04;25.40;99.90
11142;DHT22;5625;50.122;19.864;2023-06-10T10:10:32;25.30;99.90
11142;DHT22;5625;50.122;19.864;2023-06-10T10:13:00;25.30;99.90
11142;DHT22;5625;50.122;19.864;2023-06-10T10:15:31;25.30;99.90
11142;DHT22;5625;50.122;19.864;2023-06-10T10:18:05;25.20;99.90
11142;DHT22;5625;50.122;19.864;2023-06-10T10:20:41;25.10;99.90
11142;DHT22;5625;50.122;19.864;2023-06-10T10:23:14;25.10;99.90
11142;DHT22;5625;50.122;19.864;2023-06-10T10:25:52;25.30;99.90
11142;DHT22;5625;50.122;19.864;2023-06-10T10:28:24;25.40;99.90
11142;DHT22;5625;50.122;19.864;2023-06-10T10:30:56;25.30;99.90
11142;DHT22;5625;50.122;19.864;2023-06-10T10:33:31;25.20;99.90
11142;DHT22;5625;50.122;19.864;2023-06-10T10:36:03;25.30;99.90
11142;DHT22;5625;50.122;19.864;2023-06-10T10:38:32;25.40;99.90
11142;DHT22;5625;50.122;19.864;2023-06-10T10:41:01;25.40;99.90
11142;DHT22;5625;50.122;19.864;2023-06-10T10:43:29;25.30;99.90
11142;DHT22;5625;50.122;19.864;2023-06-10T10:45:58;25.20;99.90
11142;DHT22;5625;50.122;19.864;2023-06-10T10:48:27;25.10;99.90
11142;DHT22;5625;50.122;19.864;2023-06-10T10:51:02;25.00;99.90
11142;DHT22;5625;50.122;19.864;2023-06-10T10:53:30;25.00;99.90
11142;DHT22;5625;50.122;19.864;2023-06-10T10:55:59;25.00;99.90
11142;DHT22;5625;50.122;19.864;2023-06-10T10:58:27;24.90;99.90
11142;DHT22;5625;50.122;19.864;2023-06-10T11:00:55;24.90;99.90
11142;DHT22;5625;50.122;19.864;2023-06-10T11:03:28;24.70;99.90
11142;DHT22;5625;50.122;19.864;2023-06-10T11:05:58;24.60;99.90
11142;DHT22;5625;50.122;19.864;2023-06-10T11:08:48;24.50;99.90
11142;DHT22;5625;50.122;19.864;2023-06-10T11:11:22;24.50;99.90
11142;DHT22;5625;50.122;19.864;2023-06-10T11:14:07;24.60;99.90
11142;DHT22;5625;50.122;19.864;2023-06-10T11:16:41;24.60;99.90
11142;DHT22;5625;50.122;19.864;2023-06-10T11:19:09;24.50;99.90
11142;DHT22;5625;50.122;19.864;2023-06-10T11:21:57;24.80;99.90
11142;DHT22;5625;50.122;19.864;2023-06-10T11:24:28;24.80;99.90
11142;DHT22;5625;50.122;19.864;2023-06-10T11:27:15;24.90;99.90
11142;DHT22;5625;50.122;19.864;2023-06-10T11:32:43;25.20;99.90
11142;DHT22;5625;50.122;19.864;2023-06-10T11:35:12;25.20;99.90
11142;DHT22;5625;50.122;19.864;2023-06-10T11:37:40;25.10;99.90
11142;DHT22;5625;50.122;19.864;2023-06-10T11:40:11;25.00;99.90
11142;DHT22;5625;50.122;19.864;2023-06-10T11:42:42;24.90;99.90
11142;DHT22;5625;50.122;19.864;2023-06-10T11:45:14;24.90;99.90
11142;DHT22;5625;50.122;19.864;2023-06-10T11:47:56;24.80;99.90
11142;DHT22;5625;50.122;19.864;2023-06-10T11:50:31;24.70;99.90
11142;DHT22;5625;50.122;19.864;2023-06-10T11:52:59;24.70;99.90
11142;DHT22;5625;50.122;19.864;2023-06-10T11:55:41;24.60;99.90
11142;DHT22;5625;50.122;19.864;2023-06-10T11:58:14;24.40;99.90
11142;DHT22;5625;50.122;19.864;2023-06-10T12:00:46;24.50;99.90
11142;DHT22;5625;50.122;19.864;2023-06-10T12:03:14;24.70;99.90
11142;DHT22;5625;50.122;19.864;2023-06-10T12:05:55;24.80;99.90
11142;DHT22;5625;50.122;19.864;2023-06-10T12:08:23;24.70;99.90
11142;DHT22;5625;50.122;19.864;2023-06-10T12:10:54;24.70;99.90
11142;DHT22;5625;50.122;19.864;2023-06-10T12:13:22;24.60;99.90
11142;DHT22;5625;50.122;19.864;2023-06-10T12:15:51;24.70;99.90
11142;DHT22;5625;50.122;19.864;2023-06-10T12:18:20;24.70;99.90
11142;DHT22;5625;50.122;19.864;2023-06-10T12:20:48;24.80;99.90
11142;DHT22;5625;50.122;19.864;2023-06-10T12:23:20;24.70;99.90
11142;DHT22;5625;50.122;19.864;2023-06-10T12:25:55;24.60;99.90
11142;DHT22;5625;50.122;19.864;2023-06-10T12:28:24;24.80;99.90
11142;DHT22;5625;50.122;19.864;2023-06-10T12:31:06;24.80;99.90
11142;DHT22;5625;50.122;19.864;2023-06-10T12:33:34;25.00;99.90
11142;DHT22;5625;50.122;19.864;2023-06-10T12:36:02;25.00;99.90
11142;DHT22;5625;50.122;19.864;2023-06-10T12:38:31;25.20;99.90
11142;DHT22;5625;50.122;19.864;2023-06-10T12:41:03;25.40;99.90
11142;DHT22;5625;50.122;19.864;2023-06-10T12:43:32;25.40;99.90
11142;DHT22;5625;50.122;19.864;2023-06-10T12:46:08;25.30;99.90
11142;DHT22;5625;50.122;19.864;2023-06-10T12:48:37;25.30;99.90
11142;DHT22;5625;50.122;19.864;2023-06-10T12:51:20;25.30;99.90
11142;DHT22;5625;50.122;19.864;2023-06-10T12:53:48;25.50;99.90
11142;DHT22;5625;50.122;19.864;2023-06-10T12:56:17;25.80;99.90
11142;DHT22;5625;50.122;19.864;2023-06-10T12:58:45;25.80;99.90
11142;DHT22;5625;50.122;19.864;2023-06-10T13:01:13;25.70;99.90
11142;DHT22;5625;50.122;19.864;2023-06-10T13:03:41;25.50;99.90
11142;DHT22;5625;50.122;19.864;2023-06-10T13:06:09;25.60;99.90
11142;DHT22;5625;50.122;19.864;2023-06-10T13:08:38;25.60;99.90
11142;DHT22;5625;50.122;19.864;2023-06-10T13:11:07;25.60;99.90
11142;DHT22;5625;50.122;19.864;2023-06-10T13:13:38;25.60;99.90
11142;DHT22;5625;50.122;19.864;2023-06-10T13:16:06;25.60;99.90
11142;DHT22;5625;50.122;19.864;2023-06-10T13:18:34;25.40;99.90
11142;DHT22;5625;50.122;19.864;2023-06-10T13:21:04;25.30;99.90
11142;DHT22;5625;50.122;19.864;2023-06-10T13:23:33;25.40;99.90
11142;DHT22;5625;50.122;19.864;2023-06-10T13:26:01;25.30;99.90
11142;DHT22;5625;50.122;19.864;2023-06-10T13:28:30;25.30;99.90
11142;DHT22;5625;50.122;19.864;2023-06-10T13:31:03;25.10;99.90
11142;DHT22;5625;50.122;19.864;2023-06-10T13:33:31;25.00;99.90
11142;DHT22;5625;50.122;19.864;2023-06-10T13:35:59;25.00;99.90
11142;DHT22;5625;50.122;19.864;2023-06-10T13:38:27;25.10;99.90
11142;DHT22;5625;50.122;19.864;2023-06-10T13:40:55;25.00;99.90
11142;DHT22;5625;50.122;19.864;2023-06-10T13:43:23;25.00;99.90
11142;DHT22;5625;50.122;19.864;2023-06-10T13:45:51;25.10;99.90
11142;DHT22;5625;50.122;19.864;2023-06-10T13:48:22;25.10;99.90
11142;DHT22;5625;50.122;19.864;2023-06-10T13:50:50;24.90;99.90
11142;DHT22;5625;50.122;19.864;2023-06-10T13:53:20;24.80;99.90
11142;DHT22;5625;50.122;19.864;2023-06-10T13:55:48;24.90;99.90
11142;DHT22;5625;50.122;19.864;2023-06-10T13:58:16;24.80;99.90
11142;DHT22;5625;50.122;19.864;2023-06-10T14:00:44;24.80;99.90
11142;DHT22;5625;50.122;19.864;2023-06-10T14:03:12;24.80;99.90
11142;DHT22;5625;50.122;19.864;2023-06-10T14:05:42;24.70;99.90
11142;DHT22;5625;50.122;19.864;2023-06-10T14:08:10;24.70;99.90
11142;DHT22;5625;50.122;19.864;2023-06-10T14:10:38;24.70;99.90
11142;DHT22;5625;50.122;19.864;2023-06-10T14:13:08;24.60;99.90
11142;DHT22;5625;50.122;19.864;2023-06-10T14:15:36;24.40;99.90
11142;DHT22;5625;50.122;19.864;2023-06-10T14:18:04;24.20;99.90
11142;DHT22;5625;50.122;19.864;2023-06-10T14:20:34;24.30;99.90
11142;DHT22;5625;50.122;19.864;2023-06-10T14:23:03;24.40;99.90
11142;DHT22;5625;50.122;19.864;2023-06-10T14:25:31;24.40;99.90
11142;DHT22;5625;50.122;19.864;2023-06-10T14:27:59;24.20;99.90
11142;DHT22;5625;50.122;19.864;2023-06-10T14:30:27;24.30;99.90
11142;DHT22;5625;50.122;19.864;2023-06-10T14:32:55;24.30;99.90
11142;DHT22;5625;50.122;19.864;2023-06-10T14:35:24;24.30;99.90
11142;DHT22;5625;50.122;19.864;2023-06-10T14:37:52;24.30;99.90
11142;DHT22;5625;50.122;19.864;2023-06-10T14:40:21;24.30;99.90
11142;DHT22;5625;50.122;19.864;2023-06-10T14:42:51;24.20;99.90
11142;DHT22;5625;50.122;19.864;2023-06-10T14:45:19;24.20;99.90
11142;DHT22;5625;50.122;19.864;2023-06-10T14:47:47;24.20;99.90
11142;DHT22;5625;50.122;19.864;2023-06-10T14:50:15;24.20;99.90
11142;DHT22;5625;50.122;19.864;2023-06-10T14:52:43;24.20;99.90
11142;DHT22;5625;50.122;19.864;2023-06-10T14:55:11;24.30;99.90
11142;DHT22;5625;50.122;19.864;2023-06-10T14:57:40;24.30;99.90
11142;DHT22;5625;50.122;19.864;2023-06-10T15:00:10;24.10;99.90
11142;DHT22;5625;50.122;19.864;2023-06-10T15:02:38;24.00;99.90
11142;DHT22;5625;50.122;19.864;2023-06-10T15:05:07;23.90;99.90
11142;DHT22;5625;50.122;19.864;2023-06-10T15:07:35;23.90;99.90
11142;DHT22;5625;50.122;19.864;2023-06-10T15:10:04;23.90;99.90
11142;DHT22;5625;50.122;19.864;2023-06-10T15:12:33;23.80;99.90
11142;DHT22;5625;50.122;19.864;2023-06-10T15:15:02;23.90;99.90
11142;DHT22;5625;50.122;19.864;2023-06-10T15:17:31;23.90;99.90
11142;DHT22;5625;50.122;19.864;2023-06-10T15:19:59;23.90;99.90
11142;DHT22;5625;50.122;19.864;2023-06-10T15:22:29;23.90;99.90
11142;DHT22;5625;50.122;19.864;2023-06-10T15:25:04;23.90;99.90
11142;DHT22;5625;50.122;19.864;2023-06-10T15:27:52;23.70;99.90
11142;DHT22;5625;50.122;19.864;2023-06-10T15:30:22;23.70;99.90
11142;DHT22;5625;50.122;19.864;2023-06-10T15:32:50;23.60;99.90
11142;DHT22;5625;50.122;19.864;2023-06-10T15:35:18;23.40;99.90
11142;DHT22;5625;50.122;19.864;2023-06-10T15:37:49;23.50;99.90
11142;DHT22;5625;50.122;19.864;2023-06-10T15:40:17;23.40;99.90
11142;DHT22;5625;50.122;19.864;2023-06-10T15:42:47;23.40;99.90
11142;DHT22;5625;50.122;19.864;2023-06-10T15:45:16;23.50;99.90
11142;DHT22;5625;50.122;19.864;2023-06-10T15:47:45;23.50;99.90